Time;durP1;ratioP1;P1;durP2;ratioP2;P2;SDS_P1;SDS_P2;PMS_P1;PMS_P2;Temp;Humidity;BMP_temperature;BMP_pressure;BME280_temperature;BME280_humidity;BME280_pressure;Samples;Min_cycle;Max_cycle;Signal;HPM_P1;HPM_P2
2021/07/04 00:00:28;;;;;;;1.25;0.70;;;;;;;19.91;74.13;98643.92;1651325;84;21101;-53
2021/07/04 00:02:55;;;;;;;1.05;0.95;;;;;;;19.89;74.25;98641.89;1651300;84;20980;-54
2021/07/04 00:05:25;;;;;;;2.15;0.90;;;;;;;19.89;74.23;98640.52;1653595;84;21192;-53
2021/07/04 00:07:52;;;;;;;3.02;1.00;;;;;;;19.87;74.50;98644.77;1652922;84;21003;-56
2021/07/04 00:10:23;;;;;;;1.87;1.15;;;;;;;19.86;74.62;98643.05;1654941;84;20991;-53
2021/07/04 00:12:50;;;;;;;2.30;0.82;;;;;;;19.85;74.64;98643.20;1649854;84;21011;-53
2021/07/04 00:15:20;;;;;;;1.05;0.70;;;;;;;19.82;74.71;98645.74;1650527;84;22025;-52
2021/07/04 00:17:47;;;;;;;2.83;0.90;;;;;;;19.82;74.61;98636.72;1634210;84;21074;-53
2021/07/04 00:20:15;;;;;;;3.08;0.85;;;;;;;19.81;74.63;98636.37;1651340;84;21003;-53
2021/07/04 00:22:41;;;;;;;2.35;0.90;;;;;;;19.79;74.61;98639.76;1631222;84;21040;-53
2021/07/04 00:25:09;;;;;;;0.80;0.80;;;;;;;19.77;74.58;98635.81;1654720;84;20992;-53
2021/07/04 00:27:36;;;;;;;1.98;0.90;;;;;;;19.73;74.69;98635.80;1651802;84;20955;-53
2021/07/04 00:30:09;;;;;;;0.80;0.75;;;;;;;19.74;74.63;98642.09;1652617;84;20996;-53
2021/07/04 00:32:36;;;;;;;1.00;0.90;;;;;;;19.73;74.66;98641.27;1652179;84;21000;-53
2021/07/04 00:35:03;;;;;;;2.10;1.05;;;;;;;19.71;74.65;98639.70;1653571;84;20930;-53
2021/07/04 00:37:30;;;;;;;1.45;1.35;;;;;;;19.68;74.69;98640.86;1705793;81;20920;-53
2021/07/04 00:39:58;;;;;;;1.05;0.95;;;;;;;19.65;74.87;98645.26;1704750;81;20967;-53
2021/07/04 00:42:25;;;;;;;2.10;0.85;;;;;;;19.63;75.05;98650.05;1706061;81;21071;-53
2021/07/04 00:44:52;;;;;;;2.45;1.10;;;;;;;19.62;75.16;98653.78;1699600;81;21126;-53
2021/07/04 00:47:19;;;;;;;1.10;0.80;;;;;;;19.60;75.32;98658.03;1704578;81;21062;-53
2021/07/04 00:49:47;;;;;;;1.50;1.00;;;;;;;19.58;75.54;98651.00;1703553;81;21061;-53
2021/07/04 00:52:14;;;;;;;2.90;1.00;;;;;;;19.57;75.61;98652.87;1701626;81;21153;-53
2021/07/04 00:54:41;;;;;;;3.45;0.90;;;;;;;19.58;75.74;98651.00;1704167;81;21823;-53
2021/07/04 00:57:08;;;;;;;0.90;0.85;;;;;;;19.59;75.87;98648.62;1705951;81;20919;-53
2021/07/04 00:59:35;;;;;;;2.87;1.00;;;;;;;19.61;75.94;98643.38;1683537;81;21102;-53
2021/07/04 01:02:02;;;;;;;6.65;1.27;;;;;;;19.62;75.93;98638.27;1698314;81;21833;-53
2021/07/04 01:04:30;;;;;;;1.60;1.50;;;;;;;19.62;75.92;98639.63;1702740;81;21101;-53
2021/07/04 01:06:57;;;;;;;1.62;1.52;;;;;;;19.62;75.97;98643.73;1703039;81;21114;-53
2021/07/04 01:09:24;;;;;;;1.25;1.12;;;;;;;19.62;75.92;98644.23;1697479;81;21081;-55
2021/07/04 01:11:52;;;;;;;1.80;1.20;;;;;;;19.60;75.85;98636.70;1703077;81;21085;-54
2021/07/04 01:14:18;;;;;;;1.00;0.90;;;;;;;19.57;75.90;98635.13;1702032;81;21125;-53
2021/07/04 01:16:47;;;;;;;2.55;0.98;;;;;;;19.54;76.02;98635.47;1682355;82;21079;-54
2021/07/04 01:19:15;;;;;;;0.95;0.95;;;;;;;19.52;76.12;98636.13;1673458;83;21147;-54
2021/07/04 01:21:43;;;;;;;2.92;1.00;;;;;;;19.50;76.27;98633.20;1680524;83;20906;-53
2021/07/04 01:24:10;;;;;;;1.65;1.00;;;;;;;19.50;76.37;98629.95;1678251;83;21484;-53
2021/07/04 01:26:37;;;;;;;1.15;0.90;;;;;;;19.52;76.40;98630.67;1675228;83;21132;-53
2021/07/04 01:29:03;;;;;;;2.37;1.15;;;;;;;19.54;76.51;98633.24;1675418;83;21174;-53
2021/07/04 01:31:31;;;;;;;1.50;1.40;;;;;;;19.55;76.33;98635.83;1679732;83;21112;-53
2021/07/04 01:33:59;;;;;;;1.65;1.45;;;;;;;19.56;76.31;98632.59;1674717;83;20994;-54
2021/07/04 01:36:27;;;;;;;1.50;1.40;;;;;;;19.54;76.34;98630.52;1674671;83;21535;-53
2021/07/04 01:38:55;;;;;;;1.77;1.32;;;;;;;19.50;76.43;98620.41;1674575;83;21667;-53
2021/07/04 01:41:21;;;;;;;1.70;1.32;;;;;;;19.50;76.35;98623.64;1675714;83;21777;-53
2021/07/04 01:43:49;;;;;;;1.12;1.02;;;;;;;19.48;76.20;98616.97;1675740;83;22035;-53
2021/07/04 01:46:17;;;;;;;1.55;1.40;;;;;;;19.47;76.10;98623.47;1677912;83;21067;-54
2021/07/04 01:48:43;;;;;;;1.70;1.20;;;;;;;19.45;76.09;98621.37;1677779;83;21085;-55
2021/07/04 01:51:12;;;;;;;1.32;1.22;;;;;;;19.43;76.06;98615.70;1637197;85;21099;-53
2021/07/04 01:53:39;;;;;;;1.30;1.20;;;;;;;19.40;76.09;98618.73;1621989;86;21640;-53
2021/07/04 01:56:07;;;;;;;1.62;1.50;;;;;;;19.37;76.22;98622.66;1616657;86;20989;-53
2021/07/04 01:58:37;;;;;;;1.30;1.20;;;;;;;19.35;76.44;98624.68;1616540;86;21123;-53
2021/07/04 02:01:05;;;;;;;4.75;1.85;;;;;;;19.36;76.58;98626.91;1625471;86;21107;-52
2021/07/04 02:03:32;;;;;;;1.82;1.72;;;;;;;19.35;76.62;98628.77;1625202;86;21733;-52
2021/07/04 02:06:00;;;;;;;2.33;2.20;;;;;;;19.36;76.63;98626.40;1613006;86;21175;-53
2021/07/04 02:08:28;;;;;;;1.87;1.77;;;;;;;19.36;76.32;98619.58;1632605;85;21144;-53
2021/07/04 02:10:56;;;;;;;2.55;2.35;;;;;;;19.35;76.42;98627.91;1619545;86;21139;-52
2021/07/04 02:13:23;;;;;;;1.75;1.65;;;;;;;19.34;76.56;98628.42;1614806;86;21107;-52
2021/07/04 02:15:51;;;;;;;2.55;1.90;;;;;;;19.34;76.65;98631.65;1618312;86;21073;-52
2021/07/04 02:18:34;;;;;;;2.10;1.50;;;;;;;19.32;76.71;98637.77;1638083;85;21655;-52
2021/07/04 02:21:20;;;;;;;2.20;1.30;;;;;;;19.31;76.77;98642.90;1653179;84;22240;-52
2021/07/04 02:23:48;;;;;;;2.80;1.52;;;;;;;19.27;76.94;98650.52;1647845;84;21062;-53
2021/07/04 02:26:29;;;;;;;1.57;1.47;;;;;;;19.27;77.12;98651.38;1635506;84;21102;-53
2021/07/04 02:28:57;;;;;;;4.83;2.15;;;;;;;19.27;77.23;98658.70;1647694;84;21067;-52
2021/07/04 02:31:26;;;;;;;3.30;1.60;;;;;;;19.26;77.37;98659.72;1648977;84;21169;-52
2021/07/04 02:33:54;;;;;;;1.60;1.50;;;;;;;19.27;77.41;98662.80;1651244;84;21135;-52
2021/07/04 02:36:21;;;;;;;1.30;1.20;;;;;;;19.29;77.54;98663.51;1649294;84;21501;-52
2021/07/04 02:38:51;;;;;;;2.12;1.82;;;;;;;19.31;77.58;98667.45;1651614;84;21054;-53
2021/07/04 02:41:17;;;;;;;1.67;1.57;;;;;;;19.33;77.65;98676.31;1649703;84;21571;-53
2021/07/04 02:43:44;;;;;;;2.12;1.98;;;;;;;19.33;77.62;98668.99;1650950;84;21480;-52
2021/07/04 02:46:14;;;;;;;2.67;1.80;;;;;;;19.35;77.67;98686.58;1652282;84;21055;-52
2021/07/04 02:48:42;;;;;;;5.25;1.77;;;;;;;19.38;77.67;98683.55;1655089;84;21103;-53
2021/07/04 02:51:09;;;;;;;2.08;1.87;;;;;;;19.40;77.58;98685.09;1651069;84;21071;-52
2021/07/04 02:53:37;;;;;;;1.85;1.62;;;;;;;19.42;77.56;98689.03;1654057;84;21489;-52
2021/07/04 02:56:05;;;;;;;3.85;2.80;;;;;;;19.44;77.50;98693.33;1650364;84;21122;-52
2021/07/04 02:58:34;;;;;;;2.50;2.37;;;;;;;19.44;77.44;98691.97;1655662;84;22200;-52
2021/07/04 03:01:01;;;;;;;2.62;2.52;;;;;;;19.44;77.39;98699.30;1651441;84;21745;-53
2021/07/04 03:03:29;;;;;;;2.98;2.10;;;;;;;19.44;77.39;98701.52;1648344;84;21525;-53
2021/07/04 03:05:56;;;;;;;2.35;2.25;;;;;;;19.46;77.32;98704.09;1632512;85;21122;-52
2021/07/04 03:08:24;;;;;;;2.17;1.98;;;;;;;19.46;77.24;98702.73;1647873;84;21138;-52
2021/07/04 03:10:53;;;;;;;6.10;2.10;;;;;;;19.46;77.32;98705.46;1704197;81;21007;-53
2021/07/04 03:13:21;;;;;;;2.27;2.02;;;;;;;19.47;77.35;98703.09;1703371;81;21081;-53
2021/07/04 03:15:48;;;;;;;1.90;1.80;;;;;;;19.47;77.43;98698.99;1704072;81;21066;-52
2021/07/04 03:18:15;;;;;;;3.27;1.80;;;;;;;19.49;77.51;98700.56;1705936;81;21440;-53
2021/07/04 03:20:43;;;;;;;1.95;1.85;;;;;;;19.51;77.51;98705.87;1717410;81;22005;-53
2021/07/04 03:23:12;;;;;;;5.37;2.25;;;;;;;19.56;77.61;98709.02;1715357;81;21493;-53
2021/07/04 03:25:38;;;;;;;1.70;1.37;;;;;;;19.61;77.63;98704.79;1714784;81;21073;-53
2021/07/04 03:28:05;;;;;;;5.15;1.75;;;;;;;19.66;77.64;98708.40;1711730;81;21070;-52
2021/07/04 03:30:33;;;;;;;3.05;1.82;;;;;;;19.71;77.67;98697.03;1717269;81;22002;-52
2021/07/04 03:33:01;;;;;;;2.70;2.42;;;;;;;19.75;77.70;98704.73;1715755;81;21432;-52
2021/07/04 03:35:29;;;;;;;4.35;4.05;;;;;;;19.80;77.69;98707.87;1716992;81;22066;-52
2021/07/04 03:37:58;;;;;;;3.62;3.33;;;;;;;19.85;77.72;98710.97;1712387;81;21065;-53
2021/07/04 03:40:25;;;;;;;4.37;4.08;;;;;;;19.91;77.59;98709.47;1715021;81;21073;-53
2021/07/04 03:42:56;;;;;;;4.42;4.12;;;;;;;19.94;77.48;98714.63;1710257;81;21069;-52
2021/07/04 03:45:24;;;;;;;4.80;4.17;;;;;;;19.96;77.45;98709.37;1661489;83;21409;-52
2021/07/04 03:47:51;;;;;;;3.92;3.60;;;;;;;19.97;77.46;98712.96;1659411;83;22326;-53
2021/07/04 03:50:19;;;;;;;3.72;3.10;;;;;;;19.98;77.52;98718.78;1659521;83;21125;-53
2021/07/04 03:52:48;;;;;;;3.30;2.75;;;;;;;19.99;77.62;98721.32;1659588;83;21659;-53
2021/07/04 03:55:16;;;;;;;2.65;2.45;;;;;;;20.02;77.64;98721.02;1661333;83;21156;-53
2021/07/04 03:57:44;;;;;;;3.35;2.00;;;;;;;20.06;77.73;98720.71;1656594;83;21362;-52
2021/07/04 04:00:13;;;;;;;9.63;3.17;;;;;;;20.08;77.72;98715.92;1656889;83;23094;-53
2021/07/04 04:02:47;;;;;;;2.72;1.98;;;;;;;20.11;77.75;98713.74;1664111;83;21069;-53
2021/07/04 04:05:15;;;;;;;2.08;1.98;;;;;;;20.16;77.67;98716.84;1662013;83;21161;-52
2021/07/04 04:07:45;;;;;;;6.20;3.80;;;;;;;20.21;77.67;98725.44;1659328;83;21102;-53
2021/07/04 04:10:13;;;;;;;3.17;2.52;;;;;;;20.27;77.65;98719.33;1661175;83;21077;-53
2021/07/04 04:12:42;;;;;;;4.85;3.45;;;;;;;20.32;77.54;98719.72;1660833;83;21185;-53
2021/07/04 04:15:09;;;;;;;4.30;4.00;;;;;;;20.36;77.54;98718.91;1659063;83;21600;-52
2021/07/04 04:17:36;;;;;;;3.77;3.47;;;;;;;20.38;77.52;98712.77;1633231;85;21086;-52
2021/07/04 04:20:05;;;;;;;3.42;3.25;;;;;;;20.43;77.53;98716.38;1656132;83;21111;-52
2021/07/04 04:22:32;;;;;;;2.75;2.55;;;;;;;20.47;77.44;98717.78;1629700;83;21348;-53
2021/07/04 04:24:58;;;;;;;6.55;3.15;;;;;;;20.49;77.38;98715.25;1636982;83;22687;-52
2021/07/04 04:27:25;;;;;;;2.77;2.35;;;;;;;20.54;77.49;98716.98;1658436;83;22279;-52
2021/07/04 04:29:52;;;;;;;3.08;2.87;;;;;;;20.61;77.49;98723.50;1657428;83;21110;-51
2021/07/04 04:32:19;;;;;;;3.60;2.60;;;;;;;20.71;77.38;98724.25;1663388;83;21095;-52
2021/07/04 04:34:47;;;;;;;4.10;2.50;;;;;;;20.79;77.22;98727.53;1664071;83;21102;-52
2021/07/04 04:37:13;;;;;;;3.02;2.72;;;;;;;20.82;77.10;98723.11;1664034;83;21098;-52
2021/07/04 04:39:40;;;;;;;2.20;2.10;;;;;;;20.90;77.12;98719.05;1660510;83;21085;-54
2021/07/04 04:42:08;;;;;;;2.52;2.33;;;;;;;20.98;76.99;98719.08;1663470;83;21185;-52
2021/07/04 04:44:35;;;;;;;2.47;2.37;;;;;;;21.06;76.81;98720.48;1667503;83;21078;-52
2021/07/04 04:47:04;;;;;;;3.27;2.98;;;;;;;21.13;76.71;98717.94;1660647;84;21176;-53
2021/07/04 04:49:32;;;;;;;3.80;2.80;;;;;;;21.22;76.55;98727.06;1681969;83;21360;-52
2021/07/04 04:51:58;;;;;;;3.35;3.05;;;;;;;21.28;76.35;98724.52;1658645;84;20989;-52
2021/07/04 04:54:25;;;;;;;2.70;2.52;;;;;;;21.35;76.03;98722.81;1680790;83;21263;-52
2021/07/04 04:56:51;;;;;;;3.02;2.72;;;;;;;21.44;75.89;98722.33;1676023;84;21108;-52
2021/07/04 04:59:17;;;;;;;2.33;2.12;;;;;;;21.50;75.42;98726.64;1678947;83;21045;-53
2021/07/04 05:01:44;;;;;;;3.55;2.42;;;;;;;21.52;75.16;98716.90;1664200;84;21146;-52
2021/07/04 05:04:10;;;;;;;3.02;2.77;;;;;;;21.53;75.08;98718.07;1661191;84;21073;-51
2021/07/04 05:06:37;;;;;;;3.62;2.05;;;;;;;21.55;75.14;98718.42;1661854;84;21024;-53
2021/07/04 05:09:04;;;;;;;3.20;3.00;;;;;;;21.58;75.24;98727.68;1657281;84;21101;-53
2021/07/04 05:11:30;;;;;;;3.55;3.25;;;;;;;21.63;75.10;98723.40;1682787;83;21069;-52
2021/07/04 05:13:57;;;;;;;3.98;3.17;;;;;;;21.69;75.01;98725.45;1665049;83;21130;-52
2021/07/04 05:16:23;;;;;;;3.25;2.95;;;;;;;21.74;74.69;98720.34;1663876;83;21558;-54
2021/07/04 05:18:51;;;;;;;3.17;2.80;;;;;;;21.81;74.72;98709.56;1659507;83;21221;-53
2021/07/04 05:21:18;;;;;;;4.30;3.67;;;;;;;21.88;74.68;98721.03;1650004;84;21143;-54
2021/07/04 05:23:44;;;;;;;3.95;2.60;;;;;;;21.94;74.43;98720.88;1672978;83;21090;-54
2021/07/04 05:26:11;;;;;;;4.78;2.85;;;;;;;22.01;74.35;98712.86;1652128;84;21142;-52
2021/07/04 05:28:39;;;;;;;4.40;3.77;;;;;;;22.07;74.27;98719.02;1648565;84;21133;-52
2021/07/04 05:31:05;;;;;;;4.60;3.20;;;;;;;22.13;74.12;98716.44;1649364;84;21107;-52
2021/07/04 05:33:32;;;;;;;3.98;2.27;;;;;;;22.21;74.06;98722.42;1651778;84;21114;-52
2021/07/04 05:35:58;;;;;;;6.05;2.72;;;;;;;22.29;74.04;98725.70;1652333;84;21082;-53
2021/07/04 05:38:30;;;;;;;2.87;2.70;;;;;;;22.34;73.73;98724.66;1655853;84;23093;-53
2021/07/04 05:40:53;;;;;;;3.75;2.55;;;;;;;22.43;73.75;98718.13;1648427;84;21091;-54
2021/07/04 05:43:19;;;;;;;3.37;2.50;;;;;;;22.52;73.52;98724.80;1648839;84;21110;-53
2021/07/04 05:45:46;;;;;;;4.40;2.98;;;;;;;22.61;72.43;98716.05;1654392;84;21499;-54
2021/07/04 05:48:12;;;;;;;3.30;3.20;;;;;;;22.63;72.43;98718.92;1648508;84;21063;-54
2021/07/04 05:50:39;;;;;;;3.12;2.72;;;;;;;22.65;72.43;98716.88;1652541;84;21156;-52
2021/07/04 05:53:06;;;;;;;2.75;2.40;;;;;;;22.67;72.32;98710.36;1657222;84;21046;-52
2021/07/04 05:55:32;;;;;;;2.80;2.60;;;;;;;22.65;72.34;98716.88;1646191;84;21118;-53
2021/07/04 05:57:59;;;;;;;2.67;2.58;;;;;;;22.69;72.41;98713.28;1646057;84;21098;-53
2021/07/04 06:00:25;;;;;;;3.27;2.95;;;;;;;22.72;72.31;98712.05;1699658;81;21413;-54
2021/07/04 06:02:51;;;;;;;3.42;3.12;;;;;;;22.79;72.31;98720.83;1684477;81;21584;-53
2021/07/04 06:05:18;;;;;;;2.85;2.72;;;;;;;22.83;72.19;98718.05;1683432;81;21070;-53
2021/07/04 06:07:45;;;;;;;9.93;3.33;;;;;;;22.86;72.16;98712.74;1701831;81;21039;-52
2021/07/04 06:10:12;;;;;;;2.98;2.77;;;;;;;22.93;72.23;98709.62;1701689;81;21109;-54
2021/07/04 06:12:38;;;;;;;5.67;2.85;;;;;;;23.00;72.22;98713.36;1701252;81;21480;-52
2021/07/04 06:15:06;;;;;;;4.05;3.83;;;;;;;23.08;72.17;98709.73;1698436;81;21512;-53
2021/07/04 06:17:32;;;;;;;4.30;3.83;;;;;;;23.18;71.74;98711.74;1701856;81;21080;-53
2021/07/04 06:19:59;;;;;;;4.45;4.12;;;;;;;23.25;71.38;98708.61;1700883;81;21595;-55
2021/07/04 06:22:25;;;;;;;3.72;3.52;;;;;;;23.31;71.32;98706.00;1701542;82;21507;-54
2021/07/04 06:24:51;;;;;;;3.95;3.67;;;;;;;23.36;71.05;98700.84;1699942;83;21097;-54
2021/07/04 06:27:17;;;;;;;3.80;3.60;;;;;;;23.39;71.13;98700.45;1700137;83;21802;-54
2021/07/04 06:29:44;;;;;;;3.00;2.90;;;;;;;23.43;70.74;98698.73;1702352;83;21533;-53
2021/07/04 06:33:39;;;;;;;4.95;4.72;;;;;;;23.52;70.69;98700.43;1792850;78;22985;-53
2021/07/04 06:36:06;;;;;;;4.60;4.25;;;;;;;23.53;70.81;98700.26;1765617;79;21522;-55
2021/07/04 06:38:32;;;;;;;3.83;3.62;;;;;;;23.60;70.71;98697.63;1709693;81;21160;-54
2021/07/04 06:40:58;;;;;;;3.22;3.02;;;;;;;23.64;70.67;98698.98;1710138;81;22150;-53
2021/07/04 06:43:27;;;;;;;3.45;3.20;;;;;;;23.69;70.23;98703.41;1689021;82;21519;-53
2021/07/04 06:45:54;;;;;;;3.40;3.10;;;;;;;23.73;70.14;98700.09;1686756;82;21690;-53
2021/07/04 06:48:20;;;;;;;3.98;3.77;;;;;;;23.74;69.40;98695.45;1690001;82;21114;-54
2021/07/04 06:50:47;;;;;;;3.70;3.47;;;;;;;23.75;69.45;98693.05;1689691;84;21425;-52
2021/07/04 06:53:14;;;;;;;4.03;3.45;;;;;;;23.78;69.34;98698.19;1686988;84;21034;-52
2021/07/04 06:55:41;;;;;;;3.50;3.30;;;;;;;23.85;69.22;98692.81;1686172;84;21199;-54
2021/07/04 06:58:07;;;;;;;5.33;4.75;;;;;;;23.90;68.90;98695.36;1686345;84;21104;-53
2021/07/04 07:00:34;;;;;;;4.83;4.55;;;;;;;23.97;68.76;98686.71;1687618;82;21439;-52
2021/07/04 07:03:00;;;;;;;4.22;3.92;;;;;;;24.00;68.28;98694.56;1689388;84;21806;-53
2021/07/04 07:05:27;;;;;;;4.85;4.45;;;;;;;24.02;67.73;98694.39;1667273;84;21506;-52
2021/07/04 07:07:53;;;;;;;3.55;3.35;;;;;;;24.06;67.90;98695.74;1665853;83;21826;-52
2021/07/04 07:10:20;;;;;;;4.90;4.45;;;;;;;24.11;67.04;98700.16;1730231;81;21054;-53
2021/07/04 07:12:47;;;;;;;3.85;3.65;;;;;;;24.11;66.86;98691.39;1724166;81;21177;-53
2021/07/04 07:15:15;;;;;;;2.92;2.80;;;;;;;24.14;67.17;98684.67;1730430;81;21536;-54
2021/07/04 07:17:41;;;;;;;3.37;3.08;;;;;;;24.17;66.99;98684.80;1729426;81;21021;-54
2021/07/04 07:20:12;;;;;;;2.05;1.90;;;;;;;24.22;67.27;98687.89;1727965;81;21097;-52
2021/07/04 07:22:38;;;;;;;4.47;2.58;;;;;;;24.27;66.58;98682.68;1728377;81;21314;-53
2021/07/04 07:25:06;;;;;;;2.37;2.17;;;;;;;24.32;66.19;98689.34;1687469;81;21675;-53
2021/07/04 07:27:32;;;;;;;2.12;1.92;;;;;;;24.37;66.27;98688.77;1685652;83;21222;-53
2021/07/04 07:30:01;;;;;;;1.62;1.52;;;;;;;24.39;65.37;98686.17;1686451;84;21085;-53
2021/07/04 07:32:27;;;;;;;1.92;1.70;;;;;;;24.44;65.38;98682.33;1676201;84;21108;-55
2021/07/04 07:34:54;;;;;;;2.22;2.08;;;;;;;24.50;64.54;98684.84;1655739;84;21105;-54
2021/07/04 07:37:22;;;;;;;2.27;1.20;;;;;;;24.58;65.07;98689.42;1715965;81;21093;-52
2021/07/04 07:39:48;;;;;;;2.95;2.05;;;;;;;24.67;64.64;98694.62;1715106;81;22083;-52
2021/07/04 07:42:14;;;;;;;1.62;1.52;;;;;;;24.74;64.00;98689.24;1716762;81;21470;-53
2021/07/04 07:44:41;;;;;;;1.72;1.60;;;;;;;24.80;62.55;98692.08;1714072;81;21133;-53
2021/07/04 07:47:08;;;;;;;2.85;2.75;;;;;;;24.84;63.05;98685.14;1627741;85;21070;-54
2021/07/04 07:49:34;;;;;;;2.75;2.25;;;;;;;24.93;63.65;98685.92;1712800;81;21570;-53
2021/07/04 07:52:00;;;;;;;4.20;1.10;;;;;;;25.01;63.04;98689.95;1716445;81;21168;-53
2021/07/04 07:54:35;;;;;;;3.40;2.67;;;;;;;25.05;61.57;98690.44;1713124;81;21101;-55
2021/07/04 07:57:02;;;;;;;3.15;1.45;;;;;;;25.05;61.41;98691.29;1720276;81;21125;-52
2021/07/04 07:59:31;;;;;;;2.10;2.00;;;;;;;25.13;61.97;98704.09;1710633;81;21016;-53
2021/07/04 08:01:57;;;;;;;3.60;3.40;;;;;;;25.23;61.95;98695.02;1693443;82;21123;-53
2021/07/04 08:04:24;;;;;;;3.40;3.10;;;;;;;25.30;62.06;98700.08;1714501;81;22623;-53
2021/07/04 08:06:52;;;;;;;3.70;3.50;;;;;;;25.33;61.74;98700.23;1711640;82;22509;-53
2021/07/04 08:09:19;;;;;;;3.42;3.17;;;;;;;25.34;62.21;98702.80;1714068;81;22406;-55
2021/07/04 08:11:48;;;;;;;3.87;3.62;;;;;;;25.38;62.34;98704.09;1716841;81;21336;-53
2021/07/04 08:14:16;;;;;;;3.42;3.08;;;;;;;25.41;62.00;98700.97;1715743;81;21682;-53
2021/07/04 08:16:46;;;;;;;4.53;4.10;;;;;;;25.43;62.13;98702.16;1715209;81;21063;-53
2021/07/04 08:19:13;;;;;;;3.00;2.80;;;;;;;25.46;62.38;98700.38;1715635;81;21170;-53
2021/07/04 08:21:41;;;;;;;3.02;2.83;;;;;;;25.49;62.65;98702.75;1719785;81;21002;-53
2021/07/04 08:24:08;;;;;;;5.42;4.87;;;;;;;25.51;61.44;98700.14;1721495;81;21769;-53
2021/07/04 08:26:34;;;;;;;4.10;2.80;;;;;;;25.58;61.45;98693.32;1716039;81;21093;-53
2021/07/04 08:29:01;;;;;;;2.87;2.62;;;;;;;25.63;61.27;98697.74;1717897;81;22077;-54
2021/07/04 08:31:27;;;;;;;4.47;3.70;;;;;;;25.69;61.10;98703.02;1721827;81;21889;-53
2021/07/04 08:33:54;;;;;;;3.47;3.17;;;;;;;25.71;60.48;98701.75;1714953;81;21033;-54
2021/07/04 08:36:20;;;;;;;3.98;3.60;;;;;;;25.72;60.61;98705.36;1715031;82;21105;-54
2021/07/04 08:38:47;;;;;;;3.75;3.52;;;;;;;25.75;60.92;98707.73;1711100;82;21125;-55
2021/07/04 08:41:14;;;;;;;3.95;3.00;;;;;;;25.78;61.04;98705.95;1717954;81;22612;-54
2021/07/04 08:43:42;;;;;;;3.90;3.12;;;;;;;25.80;60.71;98707.47;1713649;82;21413;-53
2021/07/04 08:46:09;;;;;;;3.95;3.60;;;;;;;25.83;60.53;98708.47;1714564;82;21105;-54
2021/07/04 08:48:38;;;;;;;3.90;3.70;;;;;;;25.86;60.69;98707.23;1716582;82;21109;-53
2021/07/04 08:51:05;;;;;;;5.87;5.42;;;;;;;25.91;60.87;98713.00;1719375;82;21479;-54
2021/07/04 08:53:32;;;;;;;5.55;5.03;;;;;;;25.93;60.59;98712.28;1719081;82;20970;-54
2021/07/04 08:55:58;;;;;;;5.90;5.50;;;;;;;25.94;60.45;98709.33;1718279;82;21582;-53
2021/07/04 08:58:25;;;;;;;5.28;4.97;;;;;;;25.97;60.71;98703.92;1716653;82;21177;-54
2021/07/04 09:01:18;;;;;;;4.85;4.62;;;;;;;25.99;60.06;98704.06;1715566;82;22199;-53
2021/07/04 09:03:49;;;;;;;5.03;4.60;;;;;;;26.00;59.21;98711.30;1713467;82;21146;-55
2021/07/04 09:06:50;;;;;;;5.90;4.92;;;;;;;26.04;59.22;98708.97;1713202;82;21110;-54
2021/07/04 09:09:24;;;;;;;5.10;4.15;;;;;;;26.11;58.72;98709.06;1713777;81;21340;-54
2021/07/04 09:12:12;;;;;;;3.67;3.30;;;;;;;26.17;58.42;98707.73;1714282;82;21041;-54
2021/07/04 09:14:48;;;;;;;5.78;3.77;;;;;;;26.25;58.46;98711.73;1715093;82;21026;-54
2021/07/04 09:17:17;;;;;;;;;;;;;;;26.37;58.53;98704.63;1718458;81;21450;-55
2021/07/04 09:19:56;;;;;;;3.42;3.12;;;;;;;26.55;58.90;98702.76;1717068;82;20983;-55
2021/07/04 09:22:39;;;;;;;3.10;2.92;;;;;;;26.64;58.18;98695.17;1714360;82;20931;-54
2021/07/04 09:25:19;;;;;;;4.25;3.58;;;;;;;26.79;57.44;98699.23;1714911;82;20966;-54
2021/07/04 09:28:18;;;;;;;3.00;2.80;;;;;;;26.87;56.58;98694.92;1716312;82;21655;-54
2021/07/04 09:30:55;;;;;;;3.98;2.35;;;;;;;26.85;54.33;98692.36;1719231;82;20892;-53
2021/07/04 09:33:25;;;;;;;3.65;2.30;;;;;;;26.81;54.45;98692.95;1726745;81;21054;-54
2021/07/04 09:36:08;;;;;;;2.20;1.57;;;;;;;26.78;53.91;98683.72;1737300;81;20900;-54
2021/07/04 09:38:41;;;;;;;1.75;1.65;;;;;;;26.76;53.88;98690.81;1735497;81;20984;-54
2021/07/04 09:41:09;;;;;;;3.13;1.83;;;;;;;26.76;53.54;98692.19;1738355;81;20890;-54
2021/07/04 09:43:37;;;;;;;1.57;1.47;;;;;;;26.74;54.02;98689.63;1733302;81;20998;-56
2021/07/04 09:46:05;;;;;;;2.47;1.35;;;;;;;26.77;54.55;98681.48;1736766;81;21081;-54
2021/07/04 09:48:40;;;;;;;2.87;2.67;;;;;;;26.78;54.26;98680.95;1738119;81;20950;-54
2021/07/04 09:51:22;;;;;;;2.55;2.27;;;;;;;26.85;54.63;98681.84;1728220;81;20927;-54
2021/07/04 09:53:59;;;;;;;3.05;2.02;;;;;;;26.84;54.94;98681.52;1736095;81;20919;-54
2021/07/04 09:56:30;;;;;;;2.35;2.12;;;;;;;26.84;55.03;98675.98;1735852;81;21440;-55
2021/07/04 09:58:58;;;;;;;3.08;2.47;;;;;;;26.83;55.46;98672.38;1735290;81;21764;-55
2021/07/04 10:01:45;;;;;;;2.17;2.00;;;;;;;26.83;54.96;98668.77;1734856;81;21046;-55
2021/07/04 10:04:28;;;;;;;2.65;2.55;;;;;;;26.79;54.16;98671.09;1736635;80;20911;-54
2021/07/04 10:06:54;;;;;;;2.60;2.50;;;;;;;26.78;55.06;98677.67;1736030;81;20922;-54
2021/07/04 10:09:21;;;;;;;3.85;2.17;;;;;;;26.74;54.64;98682.73;1734980;81;21504;-52
2021/07/04 10:11:49;;;;;;;2.80;2.35;;;;;;;26.74;55.38;98679.97;1733754;81;21721;-53
2021/07/04 10:14:17;;;;;;;2.45;2.10;;;;;;;26.72;54.68;98679.31;1728801;81;21054;-53
2021/07/04 10:16:46;;;;;;;1.42;1.32;;;;;;;26.73;55.99;98685.16;1732730;80;21084;-53
2021/07/04 10:19:19;;;;;;;2.98;2.77;;;;;;;26.72;56.34;98680.69;1733288;80;21154;-54
2021/07/04 10:21:48;;;;;;;4.03;2.20;;;;;;;26.70;57.67;98673.69;1667401;85;21003;-53
2021/07/04 10:24:14;;;;;;;3.05;2.30;;;;;;;26.67;58.16;98670.80;1674587;84;21127;-54
2021/07/04 10:26:41;;;;;;;3.27;3.08;;;;;;;26.70;56.99;98675.07;1734437;81;21040;-58
2021/07/04 10:29:07;;;;;;;3.77;2.70;;;;;;;26.76;56.96;98668.73;1734005;81;21037;-58
2021/07/04 10:31:34;;;;;;;4.65;2.37;;;;;;;26.85;56.57;98664.75;1697485;82;21113;-54
2021/07/04 10:34:15;;;;;;;3.37;2.25;;;;;;;26.94;55.97;98659.95;1706956;82;21169;-56
2021/07/04 10:37:01;;;;;;;2.55;2.45;;;;;;;27.08;56.13;98658.94;1714316;82;21173;-55
2021/07/04 10:39:30;;;;;;;2.02;1.92;;;;;;;27.21;55.65;98659.54;1711967;82;22267;-54
2021/07/04 10:42:04;;;;;;;1.85;1.75;;;;;;;27.35;54.52;98650.23;1711211;82;21439;-54
2021/07/04 10:44:47;;;;;;;2.87;2.10;;;;;;;27.43;53.58;98652.81;1717617;82;21626;-55
2021/07/04 10:47:25;;;;;;;3.20;1.70;;;;;;;27.53;52.96;98652.41;1713064;82;21042;-54
2021/07/04 10:50:09;;;;;;;2.27;1.67;;;;;;;27.54;52.80;98653.63;1697201;82;21155;-55
2021/07/04 10:52:41;;;;;;;2.40;2.05;;;;;;;27.54;52.90;98651.39;1717078;82;21026;-54
2021/07/04 10:55:16;;;;;;;1.90;1.80;;;;;;;27.46;52.47;98649.64;1717744;82;21051;-54
2021/07/04 10:58:04;;;;;;;3.02;1.75;;;;;;;27.41;52.96;98650.78;1691814;82;22098;-54
2021/07/04 11:00:38;;;;;;;1.95;1.52;;;;;;;27.36;52.59;98646.41;1720636;82;20927;-54
2021/07/04 11:03:07;;;;;;;2.08;1.52;;;;;;;27.28;52.44;98642.45;1715071;82;22184;-53
2021/07/04 11:05:40;;;;;;;2.80;1.85;;;;;;;27.21;51.89;98643.82;1715531;82;21031;-54
2021/07/04 11:08:20;;;;;;;1.55;1.20;;;;;;;27.18;52.31;98643.38;1715909;81;21509;-54
2021/07/04 11:10:53;;;;;;;1.95;1.20;;;;;;;27.13;52.39;98637.63;1715985;82;21014;-55
2021/07/04 11:13:25;;;;;;;2.10;1.80;;;;;;;27.03;52.64;98633.86;1715328;82;22234;-56
2021/07/04 11:16:10;;;;;;;1.87;1.77;;;;;;;26.94;52.59;98634.56;1714253;82;22688;-54
2021/07/04 11:18:44;;;;;;;2.67;1.30;;;;;;;26.94;53.41;98633.19;1714698;82;21031;-54
2021/07/04 11:21:13;;;;;;;1.85;1.70;;;;;;;26.97;53.54;98636.89;1717304;82;21505;-55
2021/07/04 11:23:39;;;;;;;2.33;2.20;;;;;;;27.04;53.76;98630.91;1715743;82;21384;-53
2021/07/04 11:26:12;;;;;;;2.05;1.85;;;;;;;27.11;52.46;98634.53;1710123;82;21077;-55
2021/07/04 11:28:48;;;;;;;2.20;1.85;;;;;;;27.18;51.66;98629.03;1713551;82;21057;-55
2021/07/04 11:31:22;;;;;;;2.62;1.82;;;;;;;27.28;51.49;98628.64;1716067;82;21102;-55
2021/07/04 11:33:50;;;;;;;1.47;1.37;;;;;;;27.36;51.16;98627.92;1713792;82;21297;-54
2021/07/04 11:36:24;;;;;;;4.45;1.50;;;;;;;27.46;50.67;98631.68;1714887;82;21042;-53
2021/07/04 11:39:00;;;;;;;1.67;1.20;;;;;;;27.55;50.85;98622.70;1715263;82;21145;-54
2021/07/04 11:41:49;;;;;;;3.25;1.77;;;;;;;27.64;50.29;98619.53;1712190;82;21169;-56
2021/07/04 11:44:18;;;;;;;3.42;2.08;;;;;;;27.70;50.23;98621.97;1713566;82;21070;-54